sensor_id;sensor_type;location;lat;lon;timestamp;pressure;altitude;pressure_sealevel;temperature;humidity
71504;BME280;59323;50.874;7.028;2023-06-22T00:01:01;101325.81;;;22.02;67.46
71504;BME280;59323;50.874;7.028;2023-06-22T00:03:26;101318.44;;;21.96;67.08
71504;BME280;59323;50.874;7.028;2023-06-22T00:05:52;101334.53;;;22.01;66.95
71504;BME280;59323;50.874;7.028;2023-06-22T00:08:19;101324.41;;;21.94;67.12
71504;BME280;59323;50.874;7.028;2023-06-22T00:10:45;101337.72;;;21.99;67.24
71504;BME280;59323;50.874;7.028;2023-06-22T00:13:12;101333.84;;;21.97;66.87
71504;BME280;59323;50.874;7.028;2023-06-22T00:15:39;101342.91;;;21.97;67.16
71504;BME280;59323;50.874;7.028;2023-06-22T00:18:06;101344.97;;;21.93;66.34
71504;BME280;59323;50.874;7.028;2023-06-22T00:20:32;101341.00;;;21.94;66.57
71504;BME280;59323;50.874;7.028;2023-06-22T00:22:58;101351.28;;;21.94;66.34
71504;BME280;59323;50.874;7.028;2023-06-22T00:25:25;101345.84;;;21.90;66.19
71504;BME280;59323;50.874;7.028;2023-06-22T00:27:50;101345.84;;;21.90;66.72
71504;BME280;59323;50.874;7.028;2023-06-22T00:30:16;101360.03;;;21.92;66.73
71504;BME280;59323;50.874;7.028;2023-06-22T00:32:43;101352.50;;;21.93;66.91
71504;BME280;59323;50.874;7.028;2023-06-22T00:35:08;101340.28;;;21.90;66.88
71504;BME280;59323;50.874;7.028;2023-06-22T00:37:35;101337.19;;;21.88;67.41
71504;BME280;59323;50.874;7.028;2023-06-22T00:40:01;101346.63;;;21.91;67.16
71504;BME280;59323;50.874;7.028;2023-06-22T00:42:26;101345.47;;;21.88;67.24
71504;BME280;59323;50.874;7.028;2023-06-22T00:44:52;101344.69;;;21.88;67.78
71504;BME280;59323;50.874;7.028;2023-06-22T00:47:17;101354.13;;;21.90;66.38
71504;BME280;59323;50.874;7.028;2023-06-22T00:49:44;101347.91;;;21.86;67.03
71504;BME280;59323;50.874;7.028;2023-06-22T00:52:23;101351.88;;;21.85;67.02
71504;BME280;59323;50.874;7.028;2023-06-22T00:54:54;101347.63;;;21.80;66.95
71504;BME280;59323;50.874;7.028;2023-06-22T00:57:21;101353.50;;;21.82;67.39
71504;BME280;59323;50.874;7.028;2023-06-22T00:59:47;101353.84;;;21.84;67.32
71504;BME280;59323;50.874;7.028;2023-06-22T01:02:13;101345.63;;;21.81;67.62
71504;BME280;59323;50.874;7.028;2023-06-22T01:04:39;101354.28;;;21.83;67.85
71504;BME280;59323;50.874;7.028;2023-06-22T01:07:39;101349.19;;;21.81;68.30
71504;BME280;59323;50.874;7.028;2023-06-22T01:10:23;101340.16;;;21.77;68.25
71504;BME280;59323;50.874;7.028;2023-06-22T01:12:52;101348.03;;;21.79;68.43
71504;BME280;59323;50.874;7.028;2023-06-22T01:15:27;101341.38;;;21.76;68.04
71504;BME280;59323;50.874;7.028;2023-06-22T01:17:56;101332.72;;;21.74;68.02
71504;BME280;59323;50.874;7.028;2023-06-22T01:20:23;101332.28;;;21.76;67.27
71504;BME280;59323;50.874;7.028;2023-06-22T01:25:58;101324.00;;;21.76;66.57
71504;BME280;59323;50.874;7.028;2023-06-22T01:31:07;101308.25;;;21.73;66.95
71504;BME280;59323;50.874;7.028;2023-06-22T01:33:36;101308.59;;;21.75;66.62
71504;BME280;59323;50.874;7.028;2023-06-22T01:36:02;101308.59;;;21.75;66.62
71504;BME280;59323;50.874;7.028;2023-06-22T01:38:29;101300.44;;;21.68;67.24
71504;BME280;59323;50.874;7.028;2023-06-22T01:40:57;101293.78;;;21.65;67.10
71504;BME280;59323;50.874;7.028;2023-06-22T01:43:24;101304.00;;;21.68;67.37
71504;BME280;59323;50.874;7.028;2023-06-22T01:45:51;101298.47;;;21.68;67.71
71504;BME280;59323;50.874;7.028;2023-06-22T01:48:17;101297.34;;;21.66;68.81
71504;BME280;59323;50.874;7.028;2023-06-22T01:50:43;101291.44;;;21.64;68.62
71504;BME280;59323;50.874;7.028;2023-06-22T01:53:08;101301.72;;;21.63;68.39
71504;BME280;59323;50.874;7.028;2023-06-22T01:55:34;101290.75;;;21.60;68.82
71504;BME280;59323;50.874;7.028;2023-06-22T01:57:59;101286.41;;;21.59;68.00
71504;BME280;59323;50.874;7.028;2023-06-22T02:00:27;101294.28;;;21.60;68.79
71504;BME280;59323;50.874;7.028;2023-06-22T02:02:58;101292.72;;;21.59;68.48
71504;BME280;59323;50.874;7.028;2023-06-22T02:05:27;101288.06;;;21.56;68.91
71504;BME280;59323;50.874;7.028;2023-06-22T02:08:04;101285.44;;;21.49;69.24
71504;BME280;59323;50.874;7.028;2023-06-22T02:10:32;101296.41;;;21.52;68.96
71504;BME280;59323;50.874;7.028;2023-06-22T02:12:58;101298.41;;;21.52;69.07
71504;BME280;59323;50.874;7.028;2023-06-22T02:15:25;101298.06;;;21.50;68.89
71504;BME280;59323;50.874;7.028;2023-06-22T02:17:51;101294.50;;;21.49;69.58
71504;BME280;59323;50.874;7.028;2023-06-22T02:20:16;101292.94;;;21.48;69.07
71504;BME280;59323;50.874;7.028;2023-06-22T02:22:42;101287.84;;;21.47;69.42
71504;BME280;59323;50.874;7.028;2023-06-22T02:25:07;101291.00;;;21.45;69.37
71504;BME280;59323;50.874;7.028;2023-06-22T02:27:33;101292.22;;;21.44;69.54
71504;BME280;59323;50.874;7.028;2023-06-22T02:29:58;101289.59;;;21.37;69.51
71504;BME280;59323;50.874;7.028;2023-06-22T02:32:23;101290.72;;;21.40;69.71
71504;BME280;59323;50.874;7.028;2023-06-22T02:34:49;101291.50;;;21.40;70.13
71504;BME280;59323;50.874;7.028;2023-06-22T02:37:14;101284.41;;;21.39;70.42
71504;BME280;59323;50.874;7.028;2023-06-22T02:39:40;101288.38;;;21.38;70.52
71504;BME280;59323;50.874;7.028;2023-06-22T02:42:06;101285.25;;;21.36;70.26
71504;BME280;59323;50.874;7.028;2023-06-22T02:44:31;101288.03;;;21.36;70.46
71504;BME280;59323;50.874;7.028;2023-06-22T02:46:56;101279.78;;;21.33;70.07
71504;BME280;59323;50.874;7.028;2023-06-22T02:49:23;101282.22;;;21.31;70.21
71504;BME280;59323;50.874;7.028;2023-06-22T02:51:48;101279.88;;;21.29;70.30
71504;BME280;59323;50.874;7.028;2023-06-22T02:54:14;101283.47;;;21.26;70.42
71504;BME280;59323;50.874;7.028;2023-06-22T02:56:39;101281.16;;;21.25;71.00
71504;BME280;59323;50.874;7.028;2023-06-22T02:59:06;101274.06;;;21.24;69.84
71504;BME280;59323;50.874;7.028;2023-06-22T03:01:31;101275.25;;;21.23;70.08
71504;BME280;59323;50.874;7.028;2023-06-22T03:04:05;101262.25;;;21.19;69.27
71504;BME280;59323;50.874;7.028;2023-06-22T03:06:30;101270.91;;;21.21;69.87
71504;BME280;59323;50.874;7.028;2023-06-22T03:09:01;101274.50;;;21.18;69.67
71504;BME280;59323;50.874;7.028;2023-06-22T03:11:26;101274.16;;;21.16;70.64
71504;BME280;59323;50.874;7.028;2023-06-22T03:13:52;101276.84;;;21.20;70.57
71504;BME280;59323;50.874;7.028;2023-06-22T03:16:18;101267.00;;;21.19;70.75
71504;BME280;59323;50.874;7.028;2023-06-22T03:18:44;101266.56;;;21.20;71.25
71504;BME280;59323;50.874;7.028;2023-06-22T03:21:09;101265.81;;;21.20;71.63
71504;BME280;59323;50.874;7.028;2023-06-22T03:23:35;101270.91;;;21.21;71.29
71504;BME280;59323;50.874;7.028;2023-06-22T03:26:01;101258.72;;;21.19;71.01
71504;BME280;59323;50.874;7.028;2023-06-22T03:28:26;101263.88;;;21.17;71.16
71504;BME280;59323;50.874;7.028;2023-06-22T03:30:51;101255.25;;;21.15;71.74
71504;BME280;59323;50.874;7.028;2023-06-22T03:33:17;101250.50;;;21.15;71.68
71504;BME280;59323;50.874;7.028;2023-06-22T03:35:42;101254.09;;;21.12;71.99
71504;BME280;59323;50.874;7.028;2023-06-22T03:38:07;101254.88;;;21.13;71.83
71504;BME280;59323;50.874;7.028;2023-06-22T03:40:33;101250.91;;;21.14;70.63
71504;BME280;59323;50.874;7.028;2023-06-22T03:42:58;101264.03;;;21.10;71.24
71504;BME280;59323;50.874;7.028;2023-06-22T03:45:23;101250.63;;;21.08;72.08
71504;BME280;59323;50.874;7.028;2023-06-22T03:47:49;101251.03;;;21.07;71.82
71504;BME280;59323;50.874;7.028;2023-06-22T03:50:14;101250.28;;;21.06;72.11
71504;BME280;59323;50.874;7.028;2023-06-22T03:52:40;101243.97;;;21.06;72.15
71504;BME280;59323;50.874;7.028;2023-06-22T03:55:06;101243.19;;;21.05;72.21
71504;BME280;59323;50.874;7.028;2023-06-22T03:57:31;101242.41;;;21.05;72.55
71504;BME280;59323;50.874;7.028;2023-06-22T03:59:57;101242.41;;;21.05;72.28
71504;BME280;59323;50.874;7.028;2023-06-22T04:02:23;101241.19;;;21.06;73.12
71504;BME280;59323;50.874;7.028;2023-06-22T04:04:48;101245.94;;;21.05;73.55
71504;BME280;59323;50.874;7.028;2023-06-22T04:07:14;101246.72;;;21.06;74.36
71504;BME280;59323;50.874;7.028;2023-06-22T04:09:39;101237.22;;;21.07;74.28
71504;BME280;59323;50.874;7.028;2023-06-22T04:12:05;101230.50;;;21.08;73.88
71504;BME280;59323;50.874;7.028;2023-06-22T04:14:30;101239.16;;;21.10;74.71
71504;BME280;59323;50.874;7.028;2023-06-22T04:16:57;101237.53;;;21.12;75.15
71504;BME280;59323;50.874;7.028;2023-06-22T04:19:23;101228.81;;;21.14;75.40
71504;BME280;59323;50.874;7.028;2023-06-22T04:21:48;101227.94;;;21.17;75.73
71504;BME280;59323;50.874;7.028;2023-06-22T04:24:14;101213.50;;;21.09;76.01
71504;BME280;59323;50.874;7.028;2023-06-22T04:26:39;101213.00;;;21.14;75.65
71504;BME280;59323;50.874;7.028;2023-06-22T04:29:07;101228.72;;;21.17;75.63
71504;BME280;59323;50.874;7.028;2023-06-22T04:31:36;101224.91;;;21.11;75.29
71504;BME280;59323;50.874;7.028;2023-06-22T04:34:03;101239.84;;;21.14;74.85
71504;BME280;59323;50.874;7.028;2023-06-22T04:36:41;101241.78;;;21.17;75.14
71504;BME280;59323;50.874;7.028;2023-06-22T04:39:10;101233.97;;;21.12;75.03
71504;BME280;59323;50.874;7.028;2023-06-22T04:41:40;101232.41;;;21.11;75.47
71504;BME280;59323;50.874;7.028;2023-06-22T04:44:15;101222.28;;;21.04;75.12
71504;BME280;59323;50.874;7.028;2023-06-22T04:49:20;101237.16;;;21.10;75.67
71504;BME280;59323;50.874;7.028;2023-06-22T04:51:47;101232.47;;;21.07;76.25
71504;BME280;59323;50.874;7.028;2023-06-22T04:54:12;101234.47;;;21.07;76.23
71504;BME280;59323;50.874;7.028;2023-06-22T04:56:38;101238.00;;;21.07;76.46
71504;BME280;59323;50.874;7.028;2023-06-22T04:59:06;101234.47;;;21.07;76.92
71504;BME280;59323;50.874;7.028;2023-06-22T05:01:31;101238.00;;;21.07;76.10
71504;BME280;59323;50.874;7.028;2023-06-22T05:03:57;101237.94;;;21.11;76.72
71504;BME280;59323;50.874;7.028;2023-06-22T05:06:24;101235.53;;;21.13;77.52
71504;BME280;59323;50.874;7.028;2023-06-22T05:08:53;101229.16;;;21.16;78.19
71504;BME280;59323;50.874;7.028;2023-06-22T05:11:26;101231.06;;;21.19;77.65
71504;BME280;59323;50.874;7.028;2023-06-22T05:13:51;101234.94;;;21.25;76.12
71504;BME280;59323;50.874;7.028;2023-06-22T05:16:17;101245.06;;;21.32;76.27
71504;BME280;59323;50.874;7.028;2023-06-22T05:18:42;101249.31;;;21.36;77.44
71504;BME280;59323;50.874;7.028;2023-06-22T05:21:08;101236.53;;;21.42;77.33
71504;BME280;59323;50.874;7.028;2023-06-22T05:23:34;101235.69;;;21.45;77.52
71504;BME280;59323;50.874;7.028;2023-06-22T05:25:59;101242.31;;;21.51;77.81
71504;BME280;59323;50.874;7.028;2023-06-22T05:28:24;101238.97;;;21.60;77.12
71504;BME280;59323;50.874;7.028;2023-06-22T05:30:50;101243.91;;;21.69;77.43
71504;BME280;59323;50.874;7.028;2023-06-22T05:33:15;101251.56;;;21.81;77.86
71504;BME280;59323;50.874;7.028;2023-06-22T05:35:40;101250.25;;;21.86;77.55
71504;BME280;59323;50.874;7.028;2023-06-22T05:38:06;101243.63;;;21.99;77.22
71504;BME280;59323;50.874;7.028;2023-06-22T05:40:32;101248.09;;;22.13;76.31
71504;BME280;59323;50.874;7.028;2023-06-22T05:42:57;101240.66;;;22.42;74.98
71504;BME280;59323;50.874;7.028;2023-06-22T05:45:23;101240.66;;;22.59;74.90
71504;BME280;59323;50.874;7.028;2023-06-22T05:47:48;101238.81;;;22.68;73.82
71504;BME280;59323;50.874;7.028;2023-06-22T05:50:13;101244.19;;;22.75;74.20
71504;BME280;59323;50.874;7.028;2023-06-22T05:52:39;101243.94;;;22.86;73.96
71504;BME280;59323;50.874;7.028;2023-06-22T05:55:04;101250.66;;;23.01;73.21
71504;BME280;59323;50.874;7.028;2023-06-22T05:57:30;101243.41;;;22.91;73.13
71504;BME280;59323;50.874;7.028;2023-06-22T05:59:55;101242.75;;;22.87;73.38
71504;BME280;59323;50.874;7.028;2023-06-22T06:02:21;101245.50;;;22.87;74.40
71504;BME280;59323;50.874;7.028;2023-06-22T06:04:46;101251.06;;;22.87;73.59
71504;BME280;59323;50.874;7.028;2023-06-22T06:07:11;101241.72;;;22.81;74.04
71504;BME280;59323;50.874;7.028;2023-06-22T06:09:37;101243.41;;;22.75;74.52
71504;BME280;59323;50.874;7.028;2023-06-22T06:12:02;101244.19;;;22.75;74.85
71504;BME280;59323;50.874;7.028;2023-06-22T06:14:28;101257.56;;;22.81;75.10
71504;BME280;59323;50.874;7.028;2023-06-22T06:16:53;101252.78;;;22.81;74.42
71504;BME280;59323;50.874;7.028;2023-06-22T06:19:19;101243.63;;;22.84;73.79
71504;BME280;59323;50.874;7.028;2023-06-22T06:21:44;101253.53;;;22.98;73.24
71504;BME280;59323;50.874;7.028;2023-06-22T06:24:09;101267.16;;;23.21;73.08
71504;BME280;59323;50.874;7.028;2023-06-22T06:26:35;101268.41;;;23.33;72.04
71504;BME280;59323;50.874;7.028;2023-06-22T06:29:01;101267.94;;;23.51;71.74
71504;BME280;59323;50.874;7.028;2023-06-22T06:31:27;101265.50;;;23.53;71.42
71504;BME280;59323;50.874;7.028;2023-06-22T06:33:54;101268.72;;;23.51;70.72
71504;BME280;59323;50.874;7.028;2023-06-22T06:36:20;101274.97;;;23.55;71.48
71504;BME280;59323;50.874;7.028;2023-06-22T06:38:45;101270.97;;;23.40;71.12
71504;BME280;59323;50.874;7.028;2023-06-22T06:41:13;101267.97;;;23.34;71.53
71504;BME280;59323;50.874;7.028;2023-06-22T06:43:39;101274.06;;;23.29;71.04
71504;BME280;59323;50.874;7.028;2023-06-22T06:46:04;101270.94;;;23.27;71.71
71504;BME280;59323;50.874;7.028;2023-06-22T06:48:30;101262.16;;;23.16;71.67
71504;BME280;59323;50.874;7.028;2023-06-22T06:50:55;101249.06;;;23.17;72.64
71504;BME280;59323;50.874;7.028;2023-06-22T06:53:20;101236.31;;;23.19;71.92
71504;BME280;59323;50.874;7.028;2023-06-22T06:55:46;101238.69;;;23.33;71.96
71504;BME280;59323;50.874;7.028;2023-06-22T06:58:11;101238.53;;;23.53;71.71
71504;BME280;59323;50.874;7.028;2023-06-22T07:00:38;101233.03;;;23.66;70.68
71504;BME280;59323;50.874;7.028;2023-06-22T07:03:04;101237.81;;;23.91;71.20
71504;BME280;59323;50.874;7.028;2023-06-22T07:05:30;101237.81;;;24.03;70.81
71504;BME280;59323;50.874;7.028;2023-06-22T07:07:55;101227.94;;;24.15;69.50
71504;BME280;59323;50.874;7.028;2023-06-22T07:10:21;101223.91;;;24.42;68.72
71504;BME280;59323;50.874;7.028;2023-06-22T07:12:46;101227.13;;;24.53;68.57
71504;BME280;59323;50.874;7.028;2023-06-22T07:15:12;101215.22;;;24.52;68.45
71504;BME280;59323;50.874;7.028;2023-06-22T07:17:38;101217.75;;;24.72;67.66
71504;BME280;59323;50.874;7.028;2023-06-22T07:20:06;101220.63;;;25.03;67.03
71504;BME280;59323;50.874;7.028;2023-06-22T07:22:35;101209.31;;;25.41;66.34
71504;BME280;59323;50.874;7.028;2023-06-22T07:25:01;101207.16;;;25.45;64.29
71504;BME280;59323;50.874;7.028;2023-06-22T07:27:26;101217.06;;;25.46;64.95
71504;BME280;59323;50.874;7.028;2023-06-22T07:29:52;101206.00;;;25.34;65.07
71504;BME280;59323;50.874;7.028;2023-06-22T07:32:17;101214.03;;;25.32;64.56
71504;BME280;59323;50.874;7.028;2023-06-22T07:34:42;101210.59;;;25.27;65.40
71504;BME280;59323;50.874;7.028;2023-06-22T07:37:15;101200.69;;;25.26;66.29
71504;BME280;59323;50.874;7.028;2023-06-22T07:39:40;101197.00;;;25.29;65.16
71504;BME280;59323;50.874;7.028;2023-06-22T07:42:07;101207.31;;;25.42;65.33
71504;BME280;59323;50.874;7.028;2023-06-22T07:44:33;101202.59;;;25.60;64.01
71504;BME280;59323;50.874;7.028;2023-06-22T07:46:58;101195.88;;;25.71;63.77
71504;BME280;59323;50.874;7.028;2023-06-22T07:49:23;101183.72;;;25.96;62.35
71504;BME280;59323;50.874;7.028;2023-06-22T07:51:49;101182.75;;;25.80;62.47
71504;BME280;59323;50.874;7.028;2023-06-22T07:54:14;101181.88;;;25.92;61.81
71504;BME280;59323;50.874;7.028;2023-06-22T07:56:41;101180.84;;;26.08;61.54
71504;BME280;59323;50.874;7.028;2023-06-22T07:59:06;101173.75;;;26.26;62.87
71504;BME280;59323;50.874;7.028;2023-06-22T08:01:32;101178.94;;;26.54;62.04
71504;BME280;59323;50.874;7.028;2023-06-22T08:03:57;101174.16;;;26.73;59.68
71504;BME280;59323;50.874;7.028;2023-06-22T08:06:22;101166.25;;;26.99;59.63
71504;BME280;59323;50.874;7.028;2023-06-22T08:08:48;101159.84;;;27.17;58.89
71504;BME280;59323;50.874;7.028;2023-06-22T08:11:23;101165.84;;;27.43;57.32
71504;BME280;59323;50.874;7.028;2023-06-22T08:13:50;101160.22;;;27.52;56.88
71504;BME280;59323;50.874;7.028;2023-06-22T08:16:15;101152.84;;;27.73;57.18
71504;BME280;59323;50.874;7.028;2023-06-22T08:18:40;101147.88;;;27.77;56.49
71504;BME280;59323;50.874;7.028;2023-06-22T08:21:06;101134.03;;;27.83;56.57
71504;BME280;59323;50.874;7.028;2023-06-22T08:23:31;101142.78;;;27.99;55.88
71504;BME280;59323;50.874;7.028;2023-06-22T08:25:56;101129.59;;;28.24;56.25
71504;BME280;59323;50.874;7.028;2023-06-22T08:28:22;101133.50;;;28.41;55.58
71504;BME280;59323;50.874;7.028;2023-06-22T08:30:47;101127.34;;;28.52;56.06
71504;BME280;59323;50.874;7.028;2023-06-22T08:33:13;101126.22;;;28.58;55.03
71504;BME280;59323;50.874;7.028;2023-06-22T08:35:38;101115.06;;;28.34;55.94
71504;BME280;59323;50.874;7.028;2023-06-22T08:38:03;101113.47;;;28.42;54.82
71504;BME280;59323;50.874;7.028;2023-06-22T08:40:29;101121.94;;;28.48;55.33
71504;BME280;59323;50.874;7.028;2023-06-22T08:42:54;101095.06;;;28.51;54.67
71504;BME280;59323;50.874;7.028;2023-06-22T08:45:20;101107.81;;;28.66;55.20
71504;BME280;59323;50.874;7.028;2023-06-22T08:47:45;101115.28;;;28.84;54.35
71504;BME280;59323;50.874;7.028;2023-06-22T08:50:11;101116.72;;;28.80;54.52
71504;BME280;59323;50.874;7.028;2023-06-22T08:52:38;101106.00;;;28.63;54.87
71504;BME280;59323;50.874;7.028;2023-06-22T08:55:06;101100.47;;;28.54;54.84
71504;BME280;59323;50.874;7.028;2023-06-22T08:57:32;101098.00;;;28.32;55.76
71504;BME280;59323;50.874;7.028;2023-06-22T09:00:09;101090.47;;;28.24;55.49
71504;BME280;59323;50.874;7.028;2023-06-22T09:02:42;101099.38;;;28.13;56.60
71504;BME280;59323;50.874;7.028;2023-06-22T09:05:10;101091.28;;;27.91;56.35
71504;BME280;59323;50.874;7.028;2023-06-22T09:07:35;101081.25;;;27.85;57.12
71504;BME280;59323;50.874;7.028;2023-06-22T09:10:01;101069.66;;;27.77;58.47
71504;BME280;59323;50.874;7.028;2023-06-22T09:12:26;101064.66;;;27.81;57.51
71504;BME280;59323;50.874;7.028;2023-06-22T09:14:53;101061.34;;;27.68;57.68
71504;BME280;59323;50.874;7.028;2023-06-22T09:17:18;101050.97;;;27.59;57.80
71504;BME280;59323;50.874;7.028;2023-06-22T09:19:44;101058.38;;;27.71;58.26
71504;BME280;59323;50.874;7.028;2023-06-22T09:22:09;101056.75;;;27.79;59.09
71504;BME280;59323;50.874;7.028;2023-06-22T09:24:34;101042.50;;;27.77;58.11
71504;BME280;59323;50.874;7.028;2023-06-22T09:27:00;101034.78;;;27.72;57.52
71504;BME280;59323;50.874;7.028;2023-06-22T09:29:25;101039.34;;;27.85;57.58
71504;BME280;59323;50.874;7.028;2023-06-22T09:31:51;101033.09;;;27.90;58.49
71504;BME280;59323;50.874;7.028;2023-06-22T09:34:18;101016.03;;;27.88;56.73
71504;BME280;59323;50.874;7.028;2023-06-22T09:36:46;101015.38;;;27.93;57.31
71504;BME280;59323;50.874;7.028;2023-06-22T09:39:11;101004.03;;;27.96;57.17
71504;BME280;59323;50.874;7.028;2023-06-22T09:41:36;101018.13;;;28.02;57.36
71504;BME280;59323;50.874;7.028;2023-06-22T09:44:02;101028.03;;;28.27;57.70
71504;BME280;59323;50.874;7.028;2023-06-22T09:46:27;101021.75;;;28.32;55.46
71504;BME280;59323;50.874;7.028;2023-06-22T09:48:54;101016.22;;;28.23;55.61
71504;BME280;59323;50.874;7.028;2023-06-22T09:51:19;101010.63;;;28.23;55.50
71504;BME280;59323;50.874;7.028;2023-06-22T09:53:49;101021.13;;;28.13;55.57
71504;BME280;59323;50.874;7.028;2023-06-22T09:56:14;101018.16;;;27.93;56.07
71504;BME280;59323;50.874;7.028;2023-06-22T09:58:42;101009.72;;;27.63;56.77
71504;BME280;59323;50.874;7.028;2023-06-22T10:01:08;101019.97;;;27.57;57.84
71504;BME280;59323;50.874;7.028;2023-06-22T10:03:33;101019.81;;;27.61;58.14
71504;BME280;59323;50.874;7.028;2023-06-22T10:05:59;101021.47;;;27.67;58.06
71504;BME280;59323;50.874;7.028;2023-06-22T10:08:24;101030.19;;;27.60;58.13
71504;BME280;59323;50.874;7.028;2023-06-22T10:10:49;101039.19;;;27.55;58.61
71504;BME280;59323;50.874;7.028;2023-06-22T10:13:15;101045.78;;;27.43;58.05
71504;BME280;59323;50.874;7.028;2023-06-22T10:15:41;101043.81;;;27.34;57.51
71504;BME280;59323;50.874;7.028;2023-06-22T10:18:06;101059.97;;;27.21;59.66
71504;BME280;59323;50.874;7.028;2023-06-22T10:20:32;101070.41;;;27.11;61.23
71504;BME280;59323;50.874;7.028;2023-06-22T10:22:57;101082.06;;;27.01;62.45
71504;BME280;59323;50.874;7.028;2023-06-22T10:25:23;101070.47;;;26.84;64.45
71504;BME280;59323;50.874;7.028;2023-06-22T10:27:48;101078.56;;;26.73;68.57
71504;BME280;59323;50.874;7.028;2023-06-22T10:30:14;101099.31;;;26.63;71.01
71504;BME280;59323;50.874;7.028;2023-06-22T10:32:41;101100.09;;;26.54;71.63
71504;BME280;59323;50.874;7.028;2023-06-22T10:35:08;101103.97;;;26.47;70.97
71504;BME280;59323;50.874;7.028;2023-06-22T10:37:33;101116.66;;;26.39;73.19
71504;BME280;59323;50.874;7.028;2023-06-22T10:39:59;101126.88;;;26.33;73.74
71504;BME280;59323;50.874;7.028;2023-06-22T10:42:24;101131.34;;;26.21;73.65
71504;BME280;59323;50.874;7.028;2023-06-22T10:44:49;101127.94;;;26.17;77.58
71504;BME280;59323;50.874;7.028;2023-06-22T10:47:15;101116.78;;;26.08;77.55
71504;BME280;59323;50.874;7.028;2023-06-22T10:49:41;101132.56;;;26.02;79.06
71504;BME280;59323;50.874;7.028;2023-06-22T10:52:07;101122.59;;;25.92;80.02
71504;BME280;59323;50.874;7.028;2023-06-22T10:54:33;101118.09;;;25.85;78.88
71504;BME280;59323;50.874;7.028;2023-06-22T10:56:59;101116.06;;;25.77;80.67
71504;BME280;59323;50.874;7.028;2023-06-22T10:59:25;101128.53;;;25.63;80.65
71504;BME280;59323;50.874;7.028;2023-06-22T11:01:51;101126.00;;;25.47;81.91
71504;BME280;59323;50.874;7.028;2023-06-22T11:04:16;101142.66;;;25.38;81.20
71504;BME280;59323;50.874;7.028;2023-06-22T11:06:43;101157.09;;;25.23;82.33
71504;BME280;59323;50.874;7.028;2023-06-22T11:09:08;101163.97;;;25.10;83.11
71504;BME280;59323;50.874;7.028;2023-06-22T11:11:33;101152.91;;;24.97;82.32
71504;BME280;59323;50.874;7.028;2023-06-22T11:13:59;101120.63;;;24.78;83.92
71504;BME280;59323;50.874;7.028;2023-06-22T11:16:24;101080.28;;;24.51;85.15
71504;BME280;59323;50.874;7.028;2023-06-22T11:18:50;101066.66;;;24.10;89.01
71504;BME280;59323;50.874;7.028;2023-06-22T11:21:15;101084.56;;;23.96;89.60
71504;BME280;59323;50.874;7.028;2023-06-22T11:23:42;101119.31;;;24.00;91.90
71504;BME280;59323;50.874;7.028;2023-06-22T11:26:07;101117.97;;;23.92;89.63
71504;BME280;59323;50.874;7.028;2023-06-22T11:28:33;101092.09;;;23.95;89.30
71504;BME280;59323;50.874;7.028;2023-06-22T11:31:10;101053.47;;;23.88;89.02
71504;BME280;59323;50.874;7.028;2023-06-22T11:33:44;101027.38;;;23.86;88.51
71504;BME280;59323;50.874;7.028;2023-06-22T11:36:14;101001.38;;;23.58;89.70
71504;BME280;59323;50.874;7.028;2023-06-22T11:38:48;100985.50;;;23.46;92.32
71504;BME280;59323;50.874;7.028;2023-06-22T11:41:21;100992.03;;;23.52;91.78
71504;BME280;59323;50.874;7.028;2023-06-22T11:43:55;100982.19;;;23.51;93.12
71504;BME280;59323;50.874;7.028;2023-06-22T11:46:25;101000.25;;;23.68;91.60
71504;BME280;59323;50.874;7.028;2023-06-22T11:48:51;100998.13;;;23.72;91.84
71504;BME280;59323;50.874;7.028;2023-06-22T11:51:34;100991.28;;;23.64;90.74
71504;BME280;59323;50.874;7.028;2023-06-22T11:54:00;101010.09;;;23.82;92.16
71504;BME280;59323;50.874;7.028;2023-06-22T11:56:25;101000.72;;;23.88;90.60
71504;BME280;59323;50.874;7.028;2023-06-22T11:58:53;100995.72;;;23.96;88.08
71504;BME280;59323;50.874;7.028;2023-06-22T12:01:21;100987.84;;;23.94;89.23
71504;BME280;59323;50.874;7.028;2023-06-22T12:03:49;100977.34;;;24.11;89.99
71504;BME280;59323;50.874;7.028;2023-06-22T12:06:29;100961.19;;;24.19;90.61
71504;BME280;59323;50.874;7.028;2023-06-22T12:08:57;100949.91;;;24.13;88.09
71504;BME280;59323;50.874;7.028;2023-06-22T12:11:23;100948.56;;;24.05;87.19
71504;BME280;59323;50.874;7.028;2023-06-22T12:13:48;100955.94;;;23.99;85.14
71504;BME280;59323;50.874;7.028;2023-06-22T12:16:14;100948.03;;;23.76;90.00
71504;BME280;59323;50.874;7.028;2023-06-22T12:18:39;100951.16;;;23.78;90.87
71504;BME280;59323;50.874;7.028;2023-06-22T12:21:04;100938.94;;;23.75;92.31
71504;BME280;59323;50.874;7.028;2023-06-22T12:23:30;100930.03;;;23.80;92.39
71504;BME280;59323;50.874;7.028;2023-06-22T12:25:55;100934.56;;;23.87;92.09
71504;BME280;59323;50.874;7.028;2023-06-22T12:28:20;100926.69;;;23.85;92.88
71504;BME280;59323;50.874;7.028;2023-06-22T12:30:46;100917.59;;;23.85;92.04
71504;BME280;59323;50.874;7.028;2023-06-22T12:33:11;100913.25;;;23.84;93.03
71504;BME280;59323;50.874;7.028;2023-06-22T12:35:36;100911.91;;;23.88;93.04
71504;BME280;59323;50.874;7.028;2023-06-22T12:38:02;100915.78;;;23.91;94.16
71504;BME280;59323;50.874;7.028;2023-06-22T12:40:28;100917.38;;;24.01;93.05
71504;BME280;59323;50.874;7.028;2023-06-22T12:42:53;100917.34;;;24.14;92.43
71504;BME280;59323;50.874;7.028;2023-06-22T12:45:24;100899.06;;;24.25;92.14
71504;BME280;59323;50.874;7.028;2023-06-22T12:47:58;100884.78;;;24.36;93.68
71504;BME280;59323;50.874;7.028;2023-06-22T12:50:25;100887.31;;;24.52;92.42
71504;BME280;59323;50.874;7.028;2023-06-22T13:05:28;100863.50;;;24.82;86.05
71504;BME280;59323;50.874;7.028;2023-06-22T13:08:18;100865.84;;;24.93;89.07